createdAt,value
2023-01-23T00:03:19.878Z,6.07
2023-01-23T00:08:21.737Z,6.20
2023-01-23T00:13:23.466Z,6.05
2023-01-23T00:18:25.184Z,6.05
2023-01-23T00:23:26.811Z,5.88
2023-01-23T00:28:28.437Z,6.50
2023-01-23T00:33:30.233Z,6.75
2023-01-23T00:38:32.241Z,6.70
2023-01-23T00:43:34.094Z,6.93
2023-01-23T00:48:35.730Z,7.22
2023-01-23T00:53:37.438Z,6.70
2023-01-23T00:58:40.534Z,6.50
2023-01-23T01:03:43.280Z,7.35
2023-01-23T01:08:44.943Z,6.70
2023-01-23T01:13:46.599Z,7.32
2023-01-23T01:18:48.179Z,6.68
2023-01-23T01:23:50.059Z,7.28
2023-01-23T01:28:51.695Z,7.53
2023-01-23T01:33:53.452Z,7.10
2023-01-23T01:38:55.383Z,7.47
2023-01-23T01:44:00.182Z,7.40
2023-01-23T01:49:11.029Z,6.57
2023-01-23T01:54:24.020Z,7.72
2023-01-23T01:59:28.461Z,7.10
2023-01-23T02:04:32.865Z,7.20
2023-01-23T02:09:35.454Z,7.97
2023-01-23T02:14:37.294Z,7.50
2023-01-23T02:20:05.855Z,7.28
2023-01-23T02:25:27.800Z,8.15
2023-01-23T02:30:29.709Z,8.20
2023-01-23T02:35:32.257Z,7.72
2023-01-23T02:40:42.547Z,7.85
2023-01-23T02:45:48.010Z,8.23
2023-01-23T02:50:51.425Z,7.15
2023-01-23T02:55:53.873Z,7.68
2023-01-23T03:00:57.833Z,8.23
2023-01-23T03:06:03.234Z,7.50
2023-01-23T03:11:05.485Z,7.80
2023-01-23T03:16:07.604Z,7.82
2023-01-23T03:21:09.229Z,8.75
2023-01-23T03:26:11.745Z,7.72
2023-01-23T03:31:14.169Z,8.13
2023-01-23T03:36:16.089Z,9.55
2023-01-23T03:41:27.016Z,7.30
2023-01-23T03:46:33.045Z,8.35
2023-01-23T03:51:34.759Z,7.85
2023-01-23T03:56:37.041Z,8.10
2023-01-23T04:01:42.917Z,7.65
2023-01-23T04:06:44.784Z,7.90
2023-01-23T04:11:46.452Z,8.23
2023-01-23T04:16:48.275Z,8.07
2023-01-23T04:21:50.625Z,7.78
2023-01-23T04:26:52.817Z,8.23
2023-01-23T04:31:54.597Z,7.00
2023-01-23T04:36:56.918Z,7.53
2023-01-23T04:41:59.285Z,7.47
2023-01-23T04:47:05.388Z,12.75
2023-01-23T04:52:07.116Z,8.30
2023-01-23T04:57:12.687Z,8.30
2023-01-23T05:02:15.678Z,8.10
2023-01-23T05:07:19.378Z,8.55
2023-01-23T05:12:38.155Z,8.02
2023-01-23T05:17:39.936Z,7.78
2023-01-23T05:22:52.545Z,8.50
2023-01-23T05:27:56.853Z,8.60
2023-01-23T05:32:59.307Z,8.13
2023-01-23T05:38:00.955Z,8.27
2023-01-23T05:43:02.655Z,8.55
2023-01-23T05:48:22.830Z,8.88
2023-01-23T05:53:24.573Z,8.90
2023-01-23T05:58:27.065Z,10.50
2023-01-23T06:03:49.102Z,8.80
2023-01-23T06:09:26.259Z,9.68
2023-01-23T06:14:28.058Z,9.73
2023-01-23T06:19:29.863Z,10.20
2023-01-23T06:24:32.520Z,10.80
2023-01-23T06:29:35.913Z,10.57
2023-01-23T06:34:37.583Z,12.38
2023-01-23T06:39:40.572Z,11.48
2023-01-23T06:44:46.265Z,11.48
2023-01-23T06:49:49.422Z,11.82
2023-01-23T06:54:52.070Z,11.98
2023-01-23T06:59:53.837Z,12.68
2023-01-23T07:04:56.451Z,12.50
2023-01-23T07:09:58.222Z,12.80
2023-01-23T07:15:01.205Z,13.07
2023-01-23T07:20:10.794Z,16.80
2023-01-23T07:25:17.659Z,14.18
2023-01-23T07:30:19.586Z,13.18
2023-01-23T07:35:21.413Z,12.63
2023-01-23T07:40:23.468Z,12.48
2023-01-23T07:45:25.172Z,13.63
2023-01-23T07:50:26.805Z,14.13
2023-01-23T07:55:28.569Z,13.65
2023-01-23T08:00:30.583Z,15.30
2023-01-23T08:05:32.518Z,14.65
2023-01-23T08:10:34.241Z,14.95
2023-01-23T08:15:37.452Z,19.05
2023-01-23T08:20:39.092Z,13.95
2023-01-23T08:25:40.706Z,15.07
2023-01-23T08:30:42.604Z,13.90
2023-01-23T08:35:51.900Z,14.85
2023-01-23T08:40:55.363Z,14.87
2023-01-23T08:45:58.598Z,14.20
2023-01-23T08:51:02.820Z,15.27
2023-01-23T08:56:07.528Z,14.10
2023-01-23T09:01:16.681Z,15.65
2023-01-23T09:06:20.681Z,15.73
2023-01-23T09:11:23.917Z,15.00
2023-01-23T09:16:25.784Z,14.20
2023-01-23T09:21:33.475Z,15.63
2023-01-23T09:26:35.258Z,15.18
2023-01-23T09:31:37.399Z,15.10
2023-01-23T09:36:43.258Z,14.80
2023-01-23T09:41:46.869Z,16.02
2023-01-23T09:46:52.709Z,15.95
2023-01-23T09:52:18.435Z,15.05
2023-01-23T09:57:25.765Z,15.30
2023-01-23T10:02:28.108Z,15.70
2023-01-23T10:07:54.477Z,16.00
2023-01-23T10:13:17.025Z,15.73
2023-01-23T10:18:32.041Z,16.27
2023-01-23T10:23:46.460Z,15.38
2023-01-23T10:28:48.314Z,15.57
2023-01-23T10:34:03.442Z,15.13
2023-01-23T10:39:13.147Z,16.02
2023-01-23T10:44:19.760Z,14.70
2023-01-23T10:49:35.351Z,14.60
2023-01-23T10:54:46.579Z,14.02
2023-01-23T11:00:04.703Z,14.50
2023-01-23T11:05:46.597Z,14.23
2023-01-23T11:10:54.504Z,15.23
2023-01-23T11:15:56.994Z,13.85
2023-01-23T11:20:59.127Z,15.05
2023-01-23T11:26:03.280Z,15.18
2023-01-23T11:31:21.923Z,13.65
2023-01-23T11:36:36.087Z,12.50
2023-01-23T11:41:38.288Z,12.82
2023-01-23T11:47:09.145Z,13.43
2023-01-23T11:52:13.832Z,12.23
2023-01-23T11:57:33.783Z,13.63
2023-01-23T12:03:13.553Z,11.00
2023-01-23T12:08:36.324Z,10.45
2023-01-23T12:14:15.824Z,9.38
2023-01-23T12:19:43.909Z,7.43
2023-01-23T12:25:15.937Z,9.13
2023-01-23T12:30:32.301Z,6.90
2023-01-23T12:35:49.304Z,6.25
2023-01-23T12:41:02.664Z,6.55
2023-01-23T12:46:19.558Z,5.20
2023-01-23T12:51:27.077Z,6.13
2023-01-23T12:56:36.903Z,6.43
2023-01-23T13:02:10.147Z,5.43
2023-01-23T13:07:24.441Z,6.35
2023-01-23T13:12:28.372Z,5.65
2023-01-23T13:17:37.294Z,5.32
2023-01-23T13:22:40.869Z,5.35
2023-01-23T13:27:52.456Z,4.85
2023-01-23T13:33:07.631Z,5.15
2023-01-23T13:38:21.692Z,5.10
2023-01-23T13:43:45.371Z,5.10
2023-01-23T14:21:41.185Z,4.00
2023-01-23T14:26:50.384Z,3.58
2023-01-23T14:31:52.842Z,3.30
2023-01-23T14:37:04.192Z,4.85
2023-01-23T14:42:11.659Z,3.55
2023-01-23T14:47:37.952Z,4.65
2023-01-23T14:52:40.984Z,4.18
2023-01-23T14:57:42.771Z,5.55
2023-01-23T15:02:46.592Z,4.90
2023-01-23T15:07:54.946Z,5.45
2023-01-23T15:13:02.467Z,5.15
2023-01-23T15:18:18.034Z,5.93
2023-01-23T15:23:20.146Z,5.43
2023-01-23T15:29:09.321Z,4.90
2023-01-23T15:34:16.748Z,4.53
2023-01-23T15:39:29.671Z,5.13
2023-01-23T15:44:32.770Z,6.05
2023-01-23T15:49:37.408Z,5.82
2023-01-23T15:54:40.528Z,6.10
2023-01-23T15:59:42.318Z,5.95
2023-01-23T16:04:45.600Z,5.60
2023-01-23T16:09:50.456Z,5.60
2023-01-23T16:14:52.222Z,5.93
2023-01-23T16:19:54.608Z,5.50
2023-01-23T16:24:58.353Z,6.15
2023-01-23T16:30:00.011Z,7.85
2023-01-23T16:35:01.628Z,6.60
2023-01-23T16:40:04.275Z,7.20
2023-01-23T16:45:17.735Z,6.90
2023-01-23T16:50:23.271Z,6.63
2023-01-23T16:55:30.846Z,7.65
2023-01-23T17:00:35.199Z,6.20
2023-01-23T17:05:37.333Z,6.05
2023-01-23T17:10:46.347Z,6.38
2023-01-23T17:15:55.943Z,7.00
2023-01-23T17:20:58.543Z,6.07
2023-01-23T17:26:01.632Z,7.00
2023-01-23T17:31:05.306Z,5.53
2023-01-23T17:36:07.774Z,5.90
2023-01-23T17:41:14.618Z,8.90
2023-01-23T17:46:31.249Z,7.32
2023-01-23T17:51:33.672Z,6.55
2023-01-23T17:56:35.311Z,6.57
2023-01-23T18:01:37.103Z,7.72
2023-01-23T18:06:38.726Z,5.93
2023-01-23T18:11:49.707Z,6.38
2023-01-23T18:16:51.902Z,7.68
2023-01-23T18:21:56.289Z,8.55
2023-01-23T18:27:14.811Z,7.20
2023-01-23T18:32:19.420Z,7.07
2023-01-23T18:37:54.641Z,8.45
2023-01-23T18:43:16.966Z,9.57
2023-01-23T18:48:25.419Z,9.00
2023-01-23T18:53:30.584Z,9.75
2023-01-23T18:58:47.242Z,8.95
2023-01-23T19:03:49.701Z,10.18
2023-01-23T19:08:54.232Z,10.65
2023-01-23T19:14:01.759Z,11.57
2023-01-23T19:19:40.285Z,10.57
2023-01-23T19:24:42.113Z,11.18
2023-01-23T19:29:43.897Z,10.82
2023-01-23T19:34:45.564Z,11.20
2023-01-23T19:39:47.267Z,12.27
2023-01-23T19:44:48.907Z,11.73
2023-01-23T19:49:50.589Z,10.75
2023-01-23T19:54:52.502Z,12.27
2023-01-23T19:59:54.282Z,12.13
2023-01-23T20:04:57.717Z,12.48
2023-01-23T20:09:59.382Z,12.85
2023-01-23T20:15:01.052Z,13.63
2023-01-23T20:20:04.641Z,12.80
2023-01-23T20:25:08.221Z,13.52
2023-01-23T20:30:14.602Z,14.82
2023-01-23T20:35:16.385Z,15.48
2023-01-23T20:40:18.126Z,14.65
2023-01-23T20:45:20.125Z,16.00
2023-01-23T20:50:22.055Z,16.48
2023-01-23T20:55:24.105Z,15.55
2023-01-23T21:00:26.087Z,15.45
2023-01-23T21:05:27.737Z,15.73
2023-01-23T21:10:29.375Z,15.95
2023-01-23T21:15:33.133Z,16.05
2023-01-23T21:20:35.145Z,16.25
2023-01-23T21:25:36.960Z,15.93
2023-01-23T21:30:39.201Z,16.10
2023-01-23T21:35:40.979Z,16.00
2023-01-23T21:40:42.803Z,15.88
2023-01-23T21:45:44.464Z,15.52
2023-01-23T21:50:46.060Z,17.02
2023-01-23T21:55:51.961Z,15.90
2023-01-23T22:01:20.893Z,14.80
2023-01-23T22:06:25.661Z,13.98
2023-01-23T22:11:27.901Z,14.90
2023-01-23T22:16:47.111Z,16.25
2023-01-23T22:21:49.945Z,14.50
2023-01-23T22:26:51.905Z,16.92
2023-01-23T22:31:53.692Z,14.75
2023-01-23T22:36:55.415Z,14.82
2023-01-23T22:41:57.830Z,13.15
2023-01-23T22:46:59.590Z,14.32
2023-01-23T22:52:01.238Z,13.93
2023-01-23T22:57:03.319Z,14.50
2023-01-23T23:02:04.970Z,15.30
2023-01-23T23:07:06.626Z,14.40
2023-01-23T23:12:08.478Z,14.90
2023-01-23T23:17:10.133Z,14.80
2023-01-23T23:22:11.785Z,15.65
2023-01-23T23:27:13.484Z,16.25
2023-01-23T23:32:15.134Z,15.98
2023-01-23T23:37:16.822Z,14.57
2023-01-23T23:42:18.491Z,15.18
2023-01-23T23:47:20.071Z,14.02
2023-01-23T23:52:21.736Z,15.43
2023-01-23T23:57:23.420Z,14.50
